PDT,Max TemperatureF,Mean TemperatureF,Min TemperatureF,Max Dew PointF,MeanDew PointF,Min DewpointF,Max Humidity, Mean Humidity, Min Humidity, Max Sea Level PressureIn, Mean Sea Level PressureIn, Min Sea Level PressureIn, Max VisibilityMiles, Mean VisibilityMiles, Min VisibilityMiles, Max Wind SpeedMPH, Mean Wind SpeedMPH, Max Gust SpeedMPH,PrecipitationIn, CloudCover, Events, WindDirDegrees
2012-5-1,78,63,48,39,27,7,61,33,6,29.89,29.77,29.65,10,10,10,23,7,28,0.00,3,,291
2012-5-2,75,56,36,22,16,10,57,20,8,29.92,29.79,29.70,10,10,10,23,4,33,0.00,5,,271
2012-5-3,75,64,48,31,23,12,50,25,11,29.91,29.81,29.76,10,10,10,32,12,40,0.00,4,,276
2012-5-4,72,52,34,29,22,4,70,37,8,30.11,29.95,29.88,10,10,10,31,6,41,0.00,1,,338
2012-5-5,64,48,34,27,19,6,67,35,11,30.32,30.15,30.08,10,10,10,13,7,16,0.00,0,,359
2012-5-6,70,52,35,20,16,7,48,26,9,30.29,30.13,30.07,10,10,10,14,7,17,0.00,0,,4
2012-5-7,73,55,37,21,13,3,46,23,6,30.27,30.11,30.03,10,10,10,13,5,21,0.00,1,,8
2012-5-8,80,58,36,26,18,13,59,26,8,30.17,30.02,29.93,10,10,10,10,4,,0.00,3,,261
2012-5-9,89,66,44,25,18,9,42,18,5,30.05,29.90,29.78,10,10,10,17,6,26,0.00,2,,214
2012-5-10,75,60,45,27,20,3,42,24,10,30.09,29.95,29.85,10,8,2,16,8,24,0.00,3,,357
2012-5-11,75,57,39,19,12,7,32,19,8,30.10,30.00,29.94,10,10,10,10,5,,0.00,0,,349
2012-5-12,82,60,37,26,15,-2,58,23,4,30.23,30.07,30.03,10,10,10,10,4,21,0.00,0,,294
2012-5-13,88,62,39,27,15,9,53,18,6,30.23,30.04,29.92,10,10,10,9,2,,0.00,1,,52
2012-5-14,95,69,45,38,19,5,42,18,4,30.00,29.85,29.70,10,10,5,30,8,41,0.00,3,,251
2012-5-15,90,68,46,37,26,15,37,23,6,29.96,29.87,29.81,10,10,9,20,9,26,0.00,1,,284
2012-5-16,91,74,57,35,27,18,42,20,7,30.00,29.89,29.80,10,10,10,21,8,26,0.00,1,,273
2012-5-17,84,66,48,36,21,10,49,21,6,29.91,29.78,29.64,10,10,7,22,8,31,0.00,4,,264
2012-5-18,73,60,46,36,27,16,59,34,12,29.95,29.88,29.81,10,10,10,12,7,20,0.00,3,,353
2012-5-19,81,62,42,28,20,13,47,23,10,30.07,29.93,29.87,10,10,10,7,2,,0.00,1,,25
2012-5-20,89,68,48,34,31,27,58,27,12,30.10,29.96,29.89,10,10,10,9,4,16,0.00,1,,103
2012-5-21,93,74,55,41,29,14,45,22,8,30.03,29.92,29.85,10,10,10,25,9,36,0.00,4,,237
2012-5-22,86,67,50,30,22,16,32,19,9,30.03,29.91,29.85,10,10,10,29,10,37,0.00,2,,295
2012-5-23,72,60,50,36,26,15,52,29,12,29.95,29.85,29.78,10,10,10,23,10,31,0.00,2,,332
2012-5-24,79,60,42,29,21,3,53,30,5,29.89,29.68,29.51,10,10,10,31,7,39,0.00,1,,268
2012-5-25,54,45,37,40,35,29,93,70,40,29.68,29.60,29.53,10,10,6,20,11,20,0.05,7,Rain,327
2012-5-26,62,53,45,38,33,25,76,49,26,29.95,29.75,29.61,10,10,10,30,14,43,0.01,7,Rain,304
2012-5-27,69,57,46,36,31,25,66,41,21,30.11,29.98,29.94,10,10,10,12,6,16,0.00,4,,248
2012-5-28,79,60,41,36,31,26,73,37,14,29.97,29.91,29.84,10,10,10,10,4,17,0.00,0,,329
2012-5-29,82,63,45,35,29,21,63,31,11,30.04,29.94,29.90,10,10,10,9,4,,0.00,1,,330
2012-5-30,87,67,48,38,30,20,64,29,9,30.14,30.03,29.98,10,10,10,8,5,,0.00,1,,51
2012-5-31,91,70,50,36,28,24,52,23,10,30.14,30.00,29.91,10,10,10,8,3,,0.00,3,,360